Time;durP1;ratioP1;P1;durP2;ratioP2;P2;SDS_P1;SDS_P2;PMS_P1;PMS_P2;Temp;Humidity;BMP_temperature;BMP_pressure;BME280_temperature;BME280_humidity;BME280_pressure;Samples;Min_cycle;Max_cycle;Signal;HPM_P1;HPM_P2
2021/04/27 00:02:16;;;;;;;2.37;2.17;;;;;;;14.54;54.20;101793.04;1773354;80;21156;-51
2021/04/27 00:04:45;;;;;;;3.60;2.52;;;;;;;14.55;54.08;101796.50;1780434;79;21621;-51
2021/04/27 00:07:13;;;;;;;5.17;2.10;;;;;;;14.53;54.22;101797.84;1791495;79;21148;-51
2021/04/27 00:09:41;;;;;;;2.50;2.30;;;;;;;14.52;54.45;101807.93;1774153;80;21298;-50
2021/04/27 00:12:09;;;;;;;2.45;2.12;;;;;;;14.52;54.92;101797.45;1779021;80;21192;-51
2021/04/27 00:14:37;;;;;;;2.87;2.17;;;;;;;14.53;55.11;101793.92;1775754;79;21178;-51
2021/04/27 00:17:05;;;;;;;3.90;2.60;;;;;;;14.54;54.39;101783.88;1777516;79;21165;-52
2021/04/27 00:19:33;;;;;;;3.15;2.60;;;;;;;14.57;54.76;101783.79;1781780;79;21168;-51
2021/04/27 00:22:01;;;;;;;2.80;2.22;;;;;;;14.58;54.97;101787.28;1770364;80;21604;-51
2021/04/27 00:24:31;;;;;;;2.10;1.87;;;;;;;14.56;55.14;101788.63;1785206;79;21144;-51
2021/04/27 00:27:00;;;;;;;2.05;1.80;;;;;;;14.55;55.09;101786.89;1776737;80;21133;-51
2021/04/27 00:29:28;;;;;;;2.02;1.92;;;;;;;14.55;54.92;101792.13;1766467;80;21172;-51
2021/04/27 00:31:56;;;;;;;2.17;2.05;;;;;;;14.55;54.64;101803.92;1759585;80;21159;-51
2021/04/27 00:34:24;;;;;;;2.40;2.20;;;;;;;14.56;54.61;101799.11;1779402;79;21196;-51
2021/04/27 00:36:51;;;;;;;2.45;2.05;;;;;;;14.57;54.47;101796.89;1773542;79;21173;-51
2021/04/27 00:39:19;;;;;;;4.22;2.33;;;;;;;14.56;54.34;101789.94;1777682;79;21215;-51
2021/04/27 00:41:47;;;;;;;4.33;2.40;;;;;;;14.57;54.51;101789.03;1766727;80;21344;-51
2021/04/27 00:44:15;;;;;;;2.27;1.92;;;;;;;14.56;54.82;101772.91;1772742;79;21183;-51
2021/04/27 00:46:43;;;;;;;1.77;1.40;;;;;;;14.55;54.88;101770.30;1762242;80;21179;-51
2021/04/27 00:49:11;;;;;;;2.08;1.80;;;;;;;14.53;54.90;101776.03;1783985;79;21201;-51
2021/04/27 00:51:39;;;;;;;2.70;2.22;;;;;;;14.52;54.96;101768.64;1773113;79;21603;-51
2021/04/27 00:54:07;;;;;;;2.25;2.15;;;;;;;14.51;54.83;101761.66;1769424;80;21593;-51
2021/04/27 00:56:36;;;;;;;2.52;2.33;;;;;;;14.51;54.76;101759.05;1767286;80;21179;-51
2021/04/27 00:59:04;;;;;;;3.20;2.20;;;;;;;14.52;55.00;101754.67;1775433;79;21304;-51
2021/04/27 01:01:33;;;;;;;3.05;2.17;;;;;;;14.51;55.26;101751.19;1762833;80;21302;-51
2021/04/27 01:04:02;;;;;;;2.37;2.17;;;;;;;14.51;55.40;101747.26;1788265;79;21141;-51
2021/04/27 01:06:30;;;;;;;3.08;2.10;;;;;;;14.50;55.34;101746.86;1790193;79;21156;-51
2021/04/27 01:09:15;;;;;;;2.90;2.30;;;;;;;14.50;55.26;101735.08;1718749;82;21243;-51
2021/04/27 01:12:11;;;;;;;2.20;1.70;;;;;;;14.51;55.04;101715.83;1774042;80;21196;-51
2021/04/27 01:14:44;;;;;;;4.33;2.10;;;;;;;14.51;54.94;101714.52;1771787;79;21564;-51
2021/04/27 01:17:14;;;;;;;3.42;2.20;;;;;;;14.47;54.95;101706.33;1706073;82;21205;-51
2021/04/27 01:20:10;;;;;;;2.15;2.00;;;;;;;14.44;54.98;101699.86;1758686;79;21300;-51
2021/04/27 01:23:06;;;;;;;2.67;1.95;;;;;;;14.45;54.58;101693.71;1771244;79;23103;-51
2021/04/27 01:25:46;;;;;;;4.45;2.20;;;;;;;14.39;54.67;101703.02;1729976;82;21187;-51
2021/04/27 01:28:14;;;;;;;2.58;1.92;;;;;;;14.39;54.61;101704.77;1742466;82;21167;-52
2021/04/27 01:30:42;;;;;;;3.22;2.33;;;;;;;14.40;55.07;101695.59;1728444;82;21619;-51
2021/04/27 01:33:21;;;;;;;3.75;2.10;;;;;;;14.40;55.21;101703.45;1732432;82;21176;-52
2021/04/27 01:35:50;;;;;;;2.25;2.05;;;;;;;14.39;55.61;101699.09;1744514;82;21143;-52
2021/04/27 01:38:20;;;;;;;3.33;1.85;;;;;;;14.39;56.04;101716.11;1710519;82;21559;-51
2021/04/27 01:40:49;;;;;;;3.08;2.17;;;;;;;14.40;56.05;101716.54;1744592;82;21149;-51
2021/04/27 01:43:20;;;;;;;3.40;2.17;;;;;;;14.42;56.20;101721.30;1735053;82;21286;-51
2021/04/27 01:45:54;;;;;;;3.80;2.75;;;;;;;14.44;56.29;101714.27;1736601;82;21152;-52
2021/04/27 01:48:21;;;;;;;5.28;2.80;;;;;;;14.46;56.35;101708.55;1643798;85;21353;-51
2021/04/27 01:50:50;;;;;;;2.40;2.20;;;;;;;14.47;56.53;101708.94;1634148;86;21309;-53
2021/04/27 01:53:41;;;;;;;2.22;2.00;;;;;;;14.45;56.78;101696.33;1637727;86;21187;-52
2021/04/27 01:56:09;;;;;;;6.28;2.22;;;;;;;14.47;56.72;101692.36;1655935;86;21226;-51
2021/04/27 01:58:38;;;;;;;3.52;2.22;;;;;;;14.46;56.71;101694.14;1657724;86;21761;-51
2021/04/27 02:01:06;;;;;;;2.80;2.33;;;;;;;14.48;56.85;101692.79;1658322;86;21325;-52
2021/04/27 02:03:47;;;;;;;3.15;2.02;;;;;;;14.48;57.04;101682.31;1657106;86;21163;-53
2021/04/27 02:06:26;;;;;;;2.55;1.90;;;;;;;14.45;57.19;101681.92;1665959;84;21327;-51
2021/04/27 02:09:11;;;;;;;4.53;1.87;;;;;;;14.44;57.27;101673.67;1644368;86;21302;-52
2021/04/27 02:11:44;;;;;;;3.58;2.10;;;;;;;14.42;57.45;101668.05;1658598;86;21220;-51
2021/04/27 02:14:22;;;;;;;2.27;2.08;;;;;;;14.46;57.49;101665.78;1835247;77;23088;-52
2021/04/27 02:17:17;;;;;;;3.40;2.40;;;;;;;14.43;57.64;101671.94;1812151;78;21140;-51
2021/04/27 02:19:45;;;;;;;7.05;1.95;;;;;;;14.46;57.79;101669.27;1809575;78;21276;-51
2021/04/27 02:22:32;;;;;;;2.50;1.65;;;;;;;14.48;57.64;101677.08;1765652;78;21157;-51
2021/04/27 02:25:03;;;;;;;3.65;1.90;;;;;;;14.47;57.70;101674.90;1806971;78;21585;-51
2021/04/27 02:27:34;;;;;;;3.50;1.75;;;;;;;14.45;57.68;101664.91;1807091;78;21141;-52
2021/04/27 02:30:06;;;;;;;5.87;2.00;;;;;;;14.45;57.66;101655.74;1813833;78;21118;-52
2021/04/27 02:32:34;;;;;;;2.83;1.70;;;;;;;14.46;57.77;101640.46;1816727;78;21173;-52
2021/04/27 02:35:02;;;;;;;3.77;1.95;;;;;;;14.45;58.09;101642.65;1749171;78;21571;-52
2021/04/27 02:37:30;;;;;;;3.00;1.60;;;;;;;14.41;58.27;101627.04;1810538;78;21142;-52
2021/04/27 02:40:00;;;;;;;3.77;1.87;;;;;;;14.39;58.22;101615.74;1807066;78;21157;-52
2021/04/27 02:42:28;;;;;;;3.42;1.70;;;;;;;14.40;58.34;101606.56;1814290;78;21134;-52
2021/04/27 02:45:15;;;;;;;2.33;1.60;;;;;;;14.41;58.39;101610.89;1807543;78;21735;-51
2021/04/27 02:47:50;;;;;;;4.62;1.85;;;;;;;14.42;58.17;101615.24;1804507;78;21716;-51
2021/04/27 02:50:19;;;;;;;6.05;1.70;;;;;;;14.43;58.35;101608.22;1808434;78;21295;-52
2021/04/27 02:52:48;;;;;;;5.17;1.80;;;;;;;14.43;58.40;101611.71;1809587;78;21185;-52
2021/04/27 02:55:17;;;;;;;4.08;1.52;;;;;;;14.42;58.22;101612.63;1810696;78;21129;-51
2021/04/27 02:57:46;;;;;;;4.22;1.70;;;;;;;14.42;58.25;101617.86;1812609;78;21173;-53
2021/04/27 03:00:16;;;;;;;4.40;1.77;;;;;;;14.38;58.19;101608.36;1813733;78;21145;-52
2021/04/27 03:02:45;;;;;;;2.95;1.65;;;;;;;14.36;58.26;101602.27;1804901;78;21133;-52
2021/04/27 03:05:14;;;;;;;2.60;1.75;;;;;;;14.34;57.95;101600.13;1799992;78;21193;-53
2021/04/27 03:07:43;;;;;;;4.12;1.92;;;;;;;14.32;57.81;101596.70;1815212;78;21176;-52
2021/04/27 03:10:12;;;;;;;3.80;1.70;;;;;;;14.28;57.98;101587.19;1786152;78;21186;-52
2021/04/27 03:12:40;;;;;;;6.05;1.92;;;;;;;14.27;57.99;101582.84;1809186;78;21162;-51
2021/04/27 03:15:10;;;;;;;2.42;1.60;;;;;;;14.28;58.25;101582.40;1810003;78;21149;-51
2021/04/27 03:17:39;;;;;;;7.77;2.07;;;;;;;14.29;58.40;101594.16;1813330;78;21129;-52
2021/04/27 03:20:10;;;;;;;5.20;2.02;;;;;;;14.32;58.49;101607.16;1812923;78;21169;-51
2021/04/27 03:22:40;;;;;;;2.98;1.77;;;;;;;14.28;58.62;101611.19;1809135;78;21114;-52
2021/04/27 03:25:11;;;;;;;6.67;2.60;;;;;;;14.25;58.70;101618.66;1812306;78;21126;-52
2021/04/27 03:27:42;;;;;;;8.20;1.90;;;;;;;14.24;58.88;101615.61;1812067;78;21130;-51
2021/04/27 03:30:19;;;;;;;5.35;2.33;;;;;;;14.24;58.92;101610.38;1814024;78;21137;-52
2021/04/27 03:32:49;;;;;;;6.55;1.87;;;;;;;14.23;59.20;101616.53;1813418;78;21145;-52
2021/04/27 03:35:18;;;;;;;4.03;1.95;;;;;;;14.22;59.17;101617.88;1812265;78;21566;-52
2021/04/27 03:37:46;;;;;;;3.70;1.42;;;;;;;14.21;59.21;101613.09;1812303;78;21129;-52
2021/04/27 03:40:14;;;;;;;6.12;2.15;;;;;;;14.18;59.27;101615.76;1812278;78;21137;-52
2021/04/27 03:42:43;;;;;;;4.60;1.72;;;;;;;14.17;59.59;101612.74;1811494;78;21165;-52
2021/04/27 03:45:15;;;;;;;3.67;1.80;;;;;;;14.17;59.67;101603.58;1808800;78;21114;-52
2021/04/27 03:47:43;;;;;;;5.45;2.12;;;;;;;14.17;59.52;101590.94;1809216;78;21181;-52
2021/04/27 03:50:17;;;;;;;8.68;2.02;;;;;;;14.18;59.49;101587.44;1809210;78;21134;-51
2021/04/27 03:52:46;;;;;;;2.60;1.50;;;;;;;14.16;59.29;101578.29;1756067;81;21161;-52
2021/04/27 03:55:16;;;;;;;3.90;1.57;;;;;;;14.16;59.56;101583.52;1706604;83;21180;-52
2021/04/27 03:57:44;;;;;;;4.78;1.95;;;;;;;14.16;59.46;101582.22;1711295;83;21196;-52
2021/04/27 04:00:14;;;;;;;5.53;2.10;;;;;;;14.15;59.29;101562.19;1713799;83;21717;-52
2021/04/27 04:02:46;;;;;;;4.85;2.12;;;;;;;14.16;59.30;101579.59;1678357;84;21176;-52
2021/04/27 04:05:14;;;;;;;5.72;2.20;;;;;;;14.20;59.40;101592.19;1686450;84;21231;-52
2021/04/27 04:07:43;;;;;;;4.40;1.92;;;;;;;14.22;59.32;101596.47;1682328;85;21183;-52
2021/04/27 04:10:22;;;;;;;4.47;1.45;;;;;;;14.26;59.34;101597.28;1694804;84;21198;-52
2021/04/27 04:12:50;;;;;;;5.35;1.55;;;;;;;14.27;59.31;101605.09;1680817;84;21163;-52
2021/04/27 04:15:20;;;;;;;7.05;1.80;;;;;;;14.26;59.50;101611.68;1704852;83;21157;-52
2021/04/27 04:17:50;;;;;;;10.32;2.52;;;;;;;14.26;59.51;101611.20;1654004;86;21148;-52
2021/04/27 04:20:21;;;;;;;8.53;2.52;;;;;;;14.28;59.55;101617.30;1701379;83;21350;-52
2021/04/27 04:23:04;;;;;;;7.90;2.80;;;;;;;14.32;59.63;101621.56;1814464;79;23537;-51
2021/04/27 04:25:32;;;;;;;6.95;1.60;;;;;;;14.30;59.69;101635.14;1816782;78;21140;-51
2021/04/27 04:28:00;;;;;;;3.08;1.30;;;;;;;14.33;59.71;101623.30;1820261;78;21584;-51
2021/04/27 04:30:28;;;;;;;5.37;1.77;;;;;;;14.35;59.63;101624.13;1827922;78;21108;-51
2021/04/27 04:32:56;;;;;;;5.42;2.17;;;;;;;14.38;59.77;101622.77;1827230;78;21151;-52
2021/04/27 04:35:44;;;;;;;4.42;1.90;;;;;;;14.40;59.85;101625.33;1814533;78;21148;-52
2021/04/27 04:38:39;;;;;;;5.67;2.45;;;;;;;14.40;60.10;101619.66;1801278;79;28127;-51
2021/04/27 04:41:24;;;;;;;5.72;1.87;;;;;;;14.39;60.10;101625.77;1629199;87;21236;-51
2021/04/27 04:44:00;;;;;;;8.87;2.50;;;;;;;14.47;60.06;101614.67;1754169;79;28569;-50
2021/04/27 04:46:39;;;;;;;11.38;2.10;;;;;;;14.48;60.10;101609.86;1687775;84;21886;-52
2021/04/27 04:49:32;;;;;;;7.05;1.85;;;;;;;14.56;60.10;101604.42;1810919;79;22970;-52
2021/04/27 04:52:09;;;;;;;6.78;1.90;;;;;;;14.50;59.96;101596.28;1780000;80;21148;-52
2021/04/27 04:54:52;;;;;;;5.90;1.80;;;;;;;14.52;60.15;101595.79;1805868;79;22959;-52
2021/04/27 04:57:21;;;;;;;5.97;2.80;;;;;;;14.47;60.37;101604.19;1784282;80;21116;-52
2021/04/27 04:59:49;;;;;;;5.35;1.82;;;;;;;14.44;60.58;101601.66;1757173;81;21165;-52
2021/04/27 05:02:18;;;;;;;4.10;2.00;;;;;;;14.42;60.68;101607.39;1736891;81;21148;-52
2021/04/27 05:05:07;;;;;;;7.58;2.33;;;;;;;14.42;60.81;101602.16;1704822;83;21321;-52
2021/04/27 05:08:09;;;;;;;5.45;2.10;;;;;;;14.48;60.95;101574.95;1766877;79;23067;-53
2021/04/27 05:10:36;;;;;;;4.58;1.55;;;;;;;14.44;60.96;101555.84;1686592;84;21252;-53
2021/04/27 05:13:15;;;;;;;4.60;1.90;;;;;;;14.47;61.06;101553.13;1804784;79;22843;-53
2021/04/27 05:15:43;;;;;;;7.37;1.70;;;;;;;14.43;61.36;101567.20;1779580;80;21580;-52
2021/04/27 05:18:13;;;;;;;5.97;2.15;;;;;;;14.41;61.50;101571.61;1780011;80;21497;-52
2021/04/27 05:20:41;;;;;;;14.10;2.37;;;;;;;14.41;61.60;101574.23;1780145;80;21608;-52
2021/04/27 05:23:09;;;;;;;4.60;2.00;;;;;;;14.43;61.68;101558.03;1778349;80;21124;-52
2021/04/27 05:25:42;;;;;;;7.42;2.10;;;;;;;14.45;61.63;101551.44;1778963;80;21199;-53
2021/04/27 05:28:12;;;;;;;8.48;3.08;;;;;;;14.45;61.69;101573.25;1776715;80;21133;-52
2021/04/27 05:30:40;;;;;;;9.10;3.12;;;;;;;14.47;61.66;101563.60;1767128;80;21132;-51
2021/04/27 05:33:07;;;;;;;5.22;2.20;;;;;;;14.50;61.57;101567.47;1770499;80;21164;-52
2021/04/27 05:35:35;;;;;;;8.43;2.05;;;;;;;14.51;61.58;101586.20;1777056;80;21167;-52
2021/04/27 05:38:05;;;;;;;7.17;2.65;;;;;;;14.50;61.53;101562.23;1781802;80;21168;-51
2021/04/27 05:40:33;;;;;;;5.45;2.40;;;;;;;14.52;61.63;101565.67;1776911;80;21167;-52
2021/04/27 05:43:01;;;;;;;4.47;2.05;;;;;;;14.54;61.62;101554.70;1776663;80;21124;-52
2021/04/27 05:45:29;;;;;;;10.13;2.62;;;;;;;14.56;61.70;101550.30;1776822;80;21183;-53
2021/04/27 05:47:57;;;;;;;6.53;2.67;;;;;;;14.59;61.68;101536.23;1778403;80;21206;-52
2021/04/27 05:50:26;;;;;;;5.97;1.95;;;;;;;14.59;61.56;101520.08;1780051;80;21152;-52
2021/04/27 05:52:54;;;;;;;7.28;2.33;;;;;;;14.54;61.53;101504.95;1776740;80;21207;-52
2021/04/27 05:55:22;;;;;;;7.05;3.40;;;;;;;14.52;61.65;101529.45;1777801;80;21140;-52
2021/04/27 05:57:51;;;;;;;7.78;2.50;;;;;;;14.48;61.96;101528.68;1777783;80;21599;-52
2021/04/27 06:00:20;;;;;;;6.70;2.65;;;;;;;14.49;62.09;101522.52;1776104;80;21152;-52
2021/04/27 06:02:49;;;;;;;10.05;3.70;;;;;;;14.49;62.17;101522.52;1783599;80;21167;-52
2021/04/27 06:05:18;;;;;;;7.05;2.67;;;;;;;14.50;62.23;101507.23;1766057;80;21179;-52
2021/04/27 06:07:45;;;;;;;5.90;2.42;;;;;;;14.48;62.21;101493.33;1778190;80;21152;-52
2021/04/27 06:10:13;;;;;;;5.37;2.35;;;;;;;14.46;62.17;101489.89;1780282;80;21148;-52
2021/04/27 06:12:41;;;;;;;6.08;2.70;;;;;;;14.41;62.19;101502.22;1775286;80;21168;-52
2021/04/27 06:15:10;;;;;;;9.35;2.65;;;;;;;14.34;62.41;101494.10;1763012;80;21303;-52
2021/04/27 06:17:38;;;;;;;5.80;2.37;;;;;;;14.29;62.71;101489.45;1774687;80;21136;-52
2021/04/27 06:20:08;;;;;;;7.42;3.25;;;;;;;14.27;62.93;101487.73;1766945;80;21160;-52
2021/04/27 06:22:36;;;;;;;6.70;2.75;;;;;;;14.22;63.01;101497.00;1770010;80;21192;-52
2021/04/27 06:25:08;;;;;;;11.88;3.42;;;;;;;14.18;63.18;101503.20;1766873;80;21149;-52
2021/04/27 06:27:36;;;;;;;9.48;2.50;;;;;;;14.18;63.27;101517.61;1739185;82;21143;-52
2021/04/27 06:30:09;;;;;;;8.40;2.42;;;;;;;14.18;63.49;101516.30;1717878;82;21174;-53
2021/04/27 06:32:37;;;;;;;6.35;2.40;;;;;;;14.18;63.57;101504.52;1733765;82;21252;-53
2021/04/27 06:35:06;;;;;;;7.28;3.25;;;;;;;14.16;63.82;101507.63;1735485;82;21135;-52
2021/04/27 06:37:35;;;;;;;9.58;3.35;;;;;;;14.14;63.95;101513.34;1736621;82;21163;-53
2021/04/27 06:40:03;;;;;;;5.37;2.45;;;;;;;14.13;64.12;101522.11;1726342;82;21092;-52
2021/04/27 06:42:31;;;;;;;7.75;3.15;;;;;;;14.15;64.20;101505.92;1726290;82;21182;-52
2021/04/27 06:44:59;;;;;;;7.10;2.50;;;;;;;14.14;64.05;101496.77;1727953;82;21284;-52
2021/04/27 06:47:27;;;;;;;5.67;3.00;;;;;;;14.12;64.11;101488.97;1732726;82;21174;-52
2021/04/27 06:49:57;;;;;;;5.95;2.42;;;;;;;14.12;64.17;101495.95;1741705;82;21574;-52
2021/04/27 06:52:25;;;;;;;9.18;3.27;;;;;;;14.12;64.39;101505.98;1729075;82;21260;-53
2021/04/27 06:54:53;;;;;;;9.35;3.95;;;;;;;14.17;64.48;101513.72;1731423;82;21127;-52
2021/04/27 06:57:21;;;;;;;6.20;2.45;;;;;;;14.22;64.60;101502.70;1739141;82;21269;-52
2021/04/27 06:59:49;;;;;;;5.08;2.52;;;;;;;14.26;64.50;101486.86;1729275;82;21551;-52
2021/04/27 07:02:16;;;;;;;6.70;2.72;;;;;;;14.31;64.24;101490.27;1711608;82;21144;-52
2021/04/27 07:04:45;;;;;;;4.45;2.47;;;;;;;14.34;64.07;101491.48;1719435;82;21225;-53
2021/04/27 07:07:12;;;;;;;4.50;2.37;;;;;;;14.37;64.04;101499.27;1730023;82;21568;-52
2021/04/27 07:09:40;;;;;;;7.17;2.37;;;;;;;14.40;64.23;101476.09;1740690;82;21339;-52
2021/04/27 07:12:10;;;;;;;6.62;3.12;;;;;;;14.43;64.31;101478.17;1722094;82;21368;-52
2021/04/27 07:14:39;;;;;;;8.23;3.00;;;;;;;14.49;64.38;101474.08;1696705;83;21133;-53
2021/04/27 07:17:08;;;;;;;9.60;3.20;;;;;;;14.60;64.31;101475.97;1700624;83;21293;-52
2021/04/27 07:19:36;;;;;;;5.40;3.35;;;;;;;14.68;64.01;101480.55;1697125;83;21575;-52
2021/04/27 07:22:04;;;;;;;6.72;3.10;;;;;;;14.76;63.60;101486.88;1686101;83;21318;-53
2021/04/27 07:24:32;;;;;;;9.70;3.80;;;;;;;14.82;63.43;101485.88;1725994;81;21151;-52
2021/04/27 07:27:00;;;;;;;5.87;2.90;;;;;;;14.86;63.24;101480.96;1735435;81;21160;-53
2021/04/27 07:29:28;;;;;;;9.25;3.12;;;;;;;14.86;63.21;101465.23;1734965;81;21621;-52
2021/04/27 07:31:57;;;;;;;6.80;2.62;;;;;;;14.85;63.21;101468.30;1736488;81;21113;-53
2021/04/27 07:34:26;;;;;;;10.45;3.47;;;;;;;14.83;63.32;101466.63;1744211;81;21163;-53
2021/04/27 07:36:53;;;;;;;7.47;2.98;;;;;;;14.83;63.51;101461.38;1736789;81;21140;-53
2021/04/27 07:39:21;;;;;;;11.18;3.98;;;;;;;14.83;63.64;101453.52;1740700;81;21178;-52
2021/04/27 07:41:49;;;;;;;13.60;4.03;;;;;;;14.85;63.65;101452.58;1743559;81;21325;-52
2021/04/27 07:44:17;;;;;;;9.45;3.87;;;;;;;14.84;63.69;101446.91;1734617;81;21258;-52
2021/04/27 07:46:45;;;;;;;10.55;4.12;;;;;;;14.88;63.84;101446.41;1736147;81;21144;-52
2021/04/27 07:49:13;;;;;;;5.45;3.75;;;;;;;14.89;63.91;101437.63;1742182;81;21286;-52
2021/04/27 07:51:41;;;;;;;9.08;3.75;;;;;;;14.90;63.91;101439.36;1749559;79;21317;-53
2021/04/27 07:54:10;;;;;;;6.00;3.47;;;;;;;14.91;63.84;101422.27;1741385;81;21116;-52
2021/04/27 07:56:38;;;;;;;12.47;4.45;;;;;;;14.95;63.75;101430.45;1736916;81;21135;-52
2021/04/27 07:59:06;;;;;;;10.68;3.92;;;;;;;14.99;63.76;101431.20;1734496;81;21156;-53
2021/04/27 08:01:35;;;;;;;9.60;3.95;;;;;;;15.02;63.76;101419.34;1738880;81;21105;-52
2021/04/27 08:04:04;;;;;;;11.85;4.05;;;;;;;15.06;63.64;101417.04;1737502;81;21606;-53
2021/04/27 08:06:32;;;;;;;13.08;4.17;;;;;;;15.10;63.61;101415.59;1731993;81;21163;-53
2021/04/27 08:09:03;;;;;;;9.68;3.42;;;;;;;15.16;63.39;101422.41;1738883;81;21188;-53
2021/04/27 08:11:32;;;;;;;10.45;3.75;;;;;;;15.20;63.33;101418.79;1740076;81;21188;-52
2021/04/27 08:14:00;;;;;;;8.55;3.77;;;;;;;15.22;63.28;101409.98;1753681;81;21636;-53
2021/04/27 08:16:28;;;;;;;10.98;4.37;;;;;;;15.24;63.37;101407.30;1757811;81;21788;-53
2021/04/27 08:18:56;;;;;;;9.85;4.25;;;;;;;15.29;63.32;101402.31;1766577;80;21706;-53
2021/04/27 08:21:26;;;;;;;8.88;3.65;;;;;;;15.29;63.25;101406.73;1763247;81;21144;-53
2021/04/27 08:23:55;;;;;;;6.83;3.00;;;;;;;15.35;63.06;101412.61;1764285;81;21138;-53
2021/04/27 08:26:25;;;;;;;8.63;3.80;;;;;;;15.29;63.07;101405.41;1759334;80;21140;-52
2021/04/27 08:28:53;;;;;;;10.80;3.70;;;;;;;15.32;63.00;101409.23;1760222;80;21135;-53
2021/04/27 08:31:25;;;;;;;8.03;3.50;;;;;;;15.31;62.99;101407.53;1760439;81;21156;-53
2021/04/27 08:33:53;;;;;;;9.53;3.65;;;;;;;15.30;62.84;101404.49;1751420;81;21108;-51
2021/04/27 08:36:22;;;;;;;10.32;3.55;;;;;;;15.30;62.79;101399.25;1751672;81;21168;-53
2021/04/27 08:38:50;;;;;;;8.80;3.40;;;;;;;15.30;62.73;101396.63;1761051;81;21141;-53
2021/04/27 08:41:21;;;;;;;12.98;3.70;;;;;;;15.30;62.71;101403.18;1751687;81;21264;-52
2021/04/27 08:43:51;;;;;;;6.95;2.67;;;;;;;15.29;62.61;101397.07;1753983;81;21137;-52
2021/04/27 08:46:20;;;;;;;11.73;3.25;;;;;;;15.28;62.42;101390.13;1756569;81;21156;-52
2021/04/27 08:48:48;;;;;;;9.80;3.00;;;;;;;15.26;62.18;101388.45;1763308;81;21172;-52
2021/04/27 08:51:16;;;;;;;10.40;3.37;;;;;;;15.23;62.06;101393.33;1727998;81;21544;-53
2021/04/27 08:53:44;;;;;;;8.73;2.77;;;;;;;15.20;61.97;101386.89;1769402;81;21140;-52
2021/04/27 08:56:12;;;;;;;9.08;2.90;;;;;;;15.18;62.04;101387.83;1763093;81;21168;-52
2021/04/27 08:58:41;;;;;;;11.75;2.67;;;;;;;15.16;61.97;101383.09;1766992;81;21152;-52
2021/04/27 09:01:09;;;;;;;9.58;2.98;;;;;;;15.13;61.85;101381.86;1763707;81;21144;-53
2021/04/27 09:03:54;;;;;;;16.52;3.90;;;;;;;15.10;61.94;101380.21;1767625;81;21117;-53
2021/04/27 09:06:23;;;;;;;11.48;4.03;;;;;;;15.07;61.98;101368.94;1766474;81;21152;-52
2021/04/27 09:08:56;;;;;;;10.23;3.02;;;;;;;15.04;62.08;101361.19;1756152;81;21574;-52
2021/04/27 09:11:40;;;;;;;11.10;3.60;;;;;;;15.02;62.26;101364.30;1757095;81;21770;-53
2021/04/27 09:14:15;;;;;;;10.03;3.83;;;;;;;15.00;62.43;101355.16;1778396;80;21140;-52
2021/04/27 09:16:56;;;;;;;9.38;3.47;;;;;;;15.00;62.61;101353.01;1770959;80;21093;-52
2021/04/27 09:19:44;;;;;;;22.65;4.97;;;;;;;14.99;62.78;101346.03;1774226;80;21165;-53
2021/04/27 09:22:28;;;;;;;11.73;3.60;;;;;;;14.98;62.86;101350.41;1739279;82;21120;-53
2021/04/27 09:25:01;;;;;;;11.63;3.92;;;;;;;14.96;62.86;101345.67;1738035;82;21135;-53
2021/04/27 09:30:24;;;;;;;12.45;4.60;;;;;;;14.95;63.18;101336.11;1761282;79;23108;-53
2021/04/27 09:33:06;;;;;;;10.80;4.47;;;;;;;14.89;63.32;101345.91;1740570;82;21132;-52
2021/04/27 09:35:40;;;;;;;;;;;;;;;14.89;63.44;101343.30;1735677;82;21137;-53
2021/04/27 09:38:18;;;;;;;12.07;3.55;;;;;;;14.88;63.52;101341.59;1740559;82;20673;-52
2021/04/27 09:40:59;;;;;;;10.90;4.47;;;;;;;14.87;63.66;101338.55;1739693;82;21136;-53
2021/04/27 09:43:39;;;;;;;11.33;3.83;;;;;;;14.85;63.88;101338.61;1650661;84;21352;-52
2021/04/27 09:46:13;;;;;;;17.17;4.65;;;;;;;14.87;63.88;101338.55;1647536;85;21646;-52
2021/04/27 09:48:52;;;;;;;11.03;4.25;;;;;;;14.92;63.86;101332.73;1802093;79;22935;-52
2021/04/27 09:51:27;;;;;;;13.00;4.00;;;;;;;14.89;63.91;101334.13;1777041;80;21097;-53
2021/04/27 09:54:00;;;;;;;11.75;4.33;;;;;;;14.89;63.92;101335.44;1777065;80;21254;-53
2021/04/27 09:56:44;;;;;;;12.18;4.90;;;;;;;14.89;64.06;101340.23;1747677;81;21164;-53
2021/04/27 09:59:28;;;;;;;13.48;4.90;;;;;;;14.90;64.21;101337.16;1711686;83;21609;-53
2021/04/27 10:01:58;;;;;;;17.42;4.95;;;;;;;14.92;64.24;101335.36;1729923;81;21192;-53
2021/04/27 10:04:26;;;;;;;16.10;4.78;;;;;;;14.92;64.24;101327.49;1720249;83;21127;-53
2021/04/27 10:06:58;;;;;;;16.45;4.17;;;;;;;14.93;64.19;101333.13;1686737;84;21605;-53
2021/04/27 10:09:26;;;;;;;15.18;4.60;;;;;;;14.92;64.20;101330.95;1714362;83;21128;-53
2021/04/27 10:11:54;;;;;;;17.92;5.47;;;;;;;14.94;64.24;101329.61;1682233;85;21711;-53
2021/04/27 10:14:22;;;;;;;17.32;4.70;;;;;;;14.94;64.29;101321.27;1750689;81;21298;-50
2021/04/27 10:16:49;;;;;;;19.98;5.75;;;;;;;14.97;64.15;101321.64;1700195;83;21102;-51
2021/04/27 10:19:17;;;;;;;11.05;4.15;;;;;;;14.96;64.03;101319.94;1746808;82;21140;-49
2021/04/27 10:21:48;;;;;;;11.12;4.28;;;;;;;14.97;64.01;101313.78;1752292;82;21219;-50
2021/04/27 10:24:18;;;;;;;11.97;4.15;;;;;;;14.98;63.83;101314.20;1751376;81;21756;-52
2021/04/27 10:26:47;;;;;;;17.60;4.50;;;;;;;14.99;63.70;101317.21;1717409;83;21164;-52
2021/04/27 10:29:24;;;;;;;14.55;4.35;;;;;;;14.99;63.60;101322.45;1712104;83;21367;-53
2021/04/27 10:32:16;;;;;;;9.73;4.28;;;;;;;14.99;63.44;101315.90;1712212;83;21671;-53
2021/04/27 10:35:02;;;;;;;13.62;4.67;;;;;;;14.99;63.30;101319.39;1712480;83;21192;-53
2021/04/27 10:38:11;;;;;;;12.95;4.10;;;;;;;15.03;63.01;101321.00;1718700;83;21587;-52
2021/04/27 10:40:50;;;;;;;15.28;3.77;;;;;;;15.08;62.53;101320.88;1706691;82;21163;-52
2021/04/27 10:43:34;;;;;;;10.68;3.92;;;;;;;15.09;62.38;101318.64;1687267;85;21171;-52
2021/04/27 10:46:23;;;;;;;12.88;4.15;;;;;;;15.07;62.36;101313.89;1747099;81;21144;-52
2021/04/27 10:48:51;;;;;;;9.78;4.17;;;;;;;15.05;62.42;101313.09;1703884;83;21203;-52
2021/04/27 10:51:25;;;;;;;11.08;4.17;;;;;;;15.02;62.50;101304.86;1708628;84;21128;-52
2021/04/27 10:54:13;;;;;;;15.48;3.90;;;;;;;15.00;62.63;101298.81;1705793;84;21144;-51
2021/04/27 10:57:01;;;;;;;15.72;4.58;;;;;;;15.02;62.79;101298.78;1696866;83;21156;-53
2021/04/27 10:59:32;;;;;;;15.08;4.15;;;;;;;15.02;62.90;101305.34;1706563;84;21165;-52
2021/04/27 11:02:15;;;;;;;;;;;;;;;15.02;62.95;101302.72;1742967;82;21144;-53
2021/04/27 11:04:45;;;;;;;11.80;4.42;;;;;;;15.01;62.89;101299.67;1756496;82;20267;-52
2021/04/27 11:07:27;;;;;;;13.13;3.70;;;;;;;15.01;62.86;101303.60;1756081;81;21157;-52
2021/04/27 11:10:04;;;;;;;14.15;4.35;;;;;;;14.98;62.62;101302.41;1729090;82;21162;-52
2021/04/27 11:12:46;;;;;;;10.23;3.90;;;;;;;14.96;62.67;101295.05;1750036;82;21177;-52
2021/04/27 11:15:24;;;;;;;11.12;4.30;;;;;;;14.94;62.79;101297.69;1754292;81;21767;-53
2021/04/27 11:18:07;;;;;;;13.32;4.70;;;;;;;14.91;62.90;101293.88;1672496;84;21672;-54
2021/04/27 11:20:52;;;;;;;13.85;4.28;;;;;;;14.90;63.04;101295.23;1677279;84;21260;-52
2021/04/27 11:23:44;;;;;;;13.95;4.25;;;;;;;14.87;63.17;101288.33;1689280;84;21290;-53
2021/04/27 11:26:37;;;;;;;11.63;4.73;;;;;;;14.87;63.27;101287.45;1672035;84;21294;-52
2021/04/27 11:29:15;;;;;;;12.60;4.35;;;;;;;14.87;63.13;101284.84;1684585;84;21223;-51
2021/04/27 11:32:09;;;;;;;13.55;4.70;;;;;;;14.88;62.97;101285.26;1675230;84;21243;-53
2021/04/27 11:34:58;;;;;;;14.65;4.12;;;;;;;14.89;62.88;101285.65;1679300;84;21244;-53
2021/04/27 11:37:34;;;;;;;18.50;3.83;;;;;;;14.89;62.73;101283.89;1670263;84;21293;-53
2021/04/27 11:40:31;;;;;;;15.65;5.30;;;;;;;14.87;62.68;101277.84;1674856;84;21195;-53
2021/04/27 11:43:13;;;;;;;16.73;5.85;;;;;;;14.91;62.71;101279.46;1681719;83;21208;-50
2021/04/27 11:45:45;;;;;;;11.85;5.30;;;;;;;14.96;62.55;101281.95;1675285;84;21151;-53
2021/04/27 11:48:21;;;;;;;12.78;4.28;;;;;;;15.02;62.34;101276.51;1822195;77;22986;-53
2021/04/27 11:50:50;;;;;;;11.20;4.28;;;;;;;14.99;62.14;101277.90;1768706;80;21187;-52
2021/04/27 11:53:20;;;;;;;14.58;5.10;;;;;;;15.00;62.16;101271.77;1759401;81;21596;-52